Time;durP1;ratioP1;P1;durP2;ratioP2;P2;SDS_P1;SDS_P2;PMS_P1;PMS_P2;Temp;Humidity;BMP_temperature;BMP_pressure;BME280_temperature;BME280_humidity;BME280_pressure;Samples;Min_cycle;Max_cycle;Signal;HPM_P1;HPM_P2
2022/09/19 05:16:16;;;;;;;20.52;10.18;;;14.20;62.50;;;;;;7009450;19;7004606;-79
2022/09/19 05:18:45;;;;;;;15.68;10.25;;;14.20;62.40;;;;;;7368331;19;20471;-78
2022/09/19 05:21:16;;;;;;;23.08;11.27;;;14.20;62.20;;;;;;7369420;19;20027;-78
2022/09/19 05:23:45;;;;;;;21.15;8.18;;;14.20;62.30;;;;;;7369256;19;20014;-77
2022/09/19 05:26:16;;;;;;;21.45;7.05;;;14.20;62.30;;;;;;7391501;19;20019;-79
2022/09/19 05:28:46;;;;;;;24.35;6.28;;;14.20;62.10;;;;;;7367947;19;20019;-79
2022/09/19 05:31:19;;;;;;;15.60;5.70;;;14.10;62.10;;;;;;7366781;19;20015;-80
2022/09/19 05:34:01;;;;;;;11.93;5.97;;;14.10;62.50;;;;;;7379063;19;20775;-82
2022/09/19 05:36:31;;;;;;;15.13;6.55;;;14.20;62.40;;;;;;7383130;19;20039;-84
2022/09/19 05:39:00;;;;;;;14.20;5.90;;;14.20;62.10;;;;;;7381959;19;20010;-80
2022/09/19 05:41:29;;;;;;;16.38;5.57;;;14.20;61.80;;;;;;7408516;19;20024;-85
2022/09/19 05:43:58;;;;;;;13.98;5.43;;;14.20;62.20;;;;;;7378077;19;20011;-79
2022/09/19 05:46:29;;;;;;;18.45;5.40;;;14.10;62.30;;;;;;7376497;19;20110;-78
2022/09/19 05:48:58;;;;;;;15.80;4.50;;;14.10;62.30;;;;;;7377145;19;20021;-79
2022/09/19 05:51:27;;;;;;;9.90;4.10;;;14.20;62.40;;;;;;7372670;19;20023;-79
2022/09/19 05:53:54;;;;;;;11.82;4.82;;;14.20;62.40;;;;;;7372228;19;20085;-79
2022/09/19 05:56:24;;;;;;;9.82;4.00;;;14.20;62.20;;;;;;7393578;19;20015;-79
2022/09/19 05:58:56;;;;;;;10.25;4.00;;;14.20;62.50;;;;;;7371247;19;20027;-78
2022/09/19 06:01:25;;;;;;;11.20;4.07;;;14.10;62.50;;;;;;7373573;19;20053;-79
2022/09/19 06:03:57;;;;;;;12.38;4.60;;;14.10;62.50;;;;;;7373478;19;20015;-79
2022/09/19 06:06:25;;;;;;;16.75;4.32;;;14.10;62.50;;;;;;7374861;19;20031;-79
2022/09/19 06:08:58;;;;;;;11.55;4.05;;;14.10;62.60;;;;;;7372464;19;20021;-79
2022/09/19 06:11:27;;;;;;;12.55;3.90;;;14.10;62.90;;;;;;7400596;19;20038;-79
2022/09/19 06:16:37;;;;;;;8.45;3.35;;;14.20;62.90;;;;;;7375455;19;20122;-79
2022/09/19 06:19:09;;;;;;;13.65;3.55;;;14.20;62.90;;;;;;7373307;19;20106;-79
2022/09/19 06:21:37;;;;;;;16.30;3.30;;;14.20;63.00;;;;;;7374303;19;20445;-78
2022/09/19 06:24:07;;;;;;;7.03;3.45;;;14.30;62.80;;;;;;7373547;19;20019;-79
2022/09/19 06:26:36;;;;;;;15.48;3.58;;;14.30;62.90;;;;;;7371905;19;20014;-79
2022/09/19 06:29:06;;;;;;;8.43;3.20;;;14.40;62.80;;;;;;7393675;19;20015;-79
2022/09/19 06:31:35;;;;;;;8.73;3.40;;;14.40;62.70;;;;;;7373164;19;20019;-78
2022/09/19 06:34:04;;;;;;;10.35;3.05;;;14.40;63.10;;;;;;7370473;19;20015;-78
2022/09/19 06:36:35;;;;;;;7.78;3.55;;;14.40;63.40;;;;;;7374044;19;20020;-79
2022/09/19 06:39:04;;;;;;;6.85;3.00;;;14.40;63.60;;;;;;7371633;19;20333;-79
2022/09/19 06:41:34;;;;;;;7.13;3.35;;;14.50;63.80;;;;;;7389313;19;20018;-79
2022/09/19 06:44:04;;;;;;;5.93;2.90;;;14.50;63.90;;;;;;7393803;19;20010;-79
2022/09/19 06:46:37;;;;;;;9.23;3.53;;;14.50;64.00;;;;;;7372152;19;20011;-78
2022/09/19 06:49:07;;;;;;;12.70;3.72;;;14.60;64.00;;;;;;7371198;19;20438;-79
2022/09/19 06:51:38;;;;;;;9.05;3.35;;;14.70;63.90;;;;;;7371902;19;20015;-79
2022/09/19 06:54:07;;;;;;;9.85;3.28;;;14.70;64.00;;;;;;7372260;19;20058;-79
2022/09/19 06:56:35;;;;;;;8.38;3.42;;;14.80;64.00;;;;;;7372402;19;20015;-79
2022/09/19 06:59:04;;;;;;;11.70;3.30;;;14.80;64.40;;;;;;7391332;19;20064;-79
2022/09/19 07:01:34;;;;;;;7.57;3.40;;;14.90;64.50;;;;;;7370960;19;20018;-79
2022/09/19 07:04:04;;;;;;;7.22;3.53;;;14.90;64.80;;;;;;7371101;19;20584;-78
2022/09/19 07:06:34;;;;;;;20.38;3.30;;;15.00;65.30;;;;;;7372462;19;20015;-79
2022/09/19 07:09:06;;;;;;;7.72;3.17;;;15.10;65.60;;;;;;7370508;19;20021;-79
2022/09/19 07:11:37;;;;;;;9.73;3.03;;;15.10;65.80;;;;;;7372166;19;20090;-77
2022/09/19 07:14:05;;;;;;;6.30;2.83;;;15.20;66.10;;;;;;7390223;19;20015;-78
2022/09/19 07:16:34;;;;;;;10.57;3.35;;;15.20;66.10;;;;;;7371105;19;20014;-79
2022/09/19 07:19:03;;;;;;;9.48;3.38;;;15.20;66.30;;;;;;7374063;19;20022;-79
2022/09/19 07:21:32;;;;;;;8.60;2.92;;;15.20;66.20;;;;;;7372062;19;20015;-79
2022/09/19 07:24:03;;;;;;;6.40;2.80;;;15.30;66.30;;;;;;7379102;19;20086;-79
2022/09/19 07:26:34;;;;;;;8.30;2.70;;;15.30;66.20;;;;;;7420970;19;20031;-79
2022/09/19 07:29:03;;;;;;;10.25;2.97;;;15.40;66.20;;;;;;7390685;19;20027;-79
2022/09/19 07:31:32;;;;;;;13.60;3.30;;;15.50;66.30;;;;;;7380821;19;20166;-79
2022/09/19 07:34:01;;;;;;;3.78;2.20;;;15.50;66.10;;;;;;7375763;19;20014;-79
2022/09/19 07:36:30;;;;;;;5.78;2.35;;;15.50;65.90;;;;;;7372715;19;20011;-78
2022/09/19 07:38:58;;;;;;;9.77;2.40;;;15.60;65.90;;;;;;7370442;19;20417;-79
2022/09/19 07:41:28;;;;;;;9.60;2.58;;;15.70;65.70;;;;;;7393523;19;20588;-79
2022/09/19 07:43:59;;;;;;;8.00;2.17;;;15.80;65.70;;;;;;7370074;19;20017;-79
2022/09/19 07:46:28;;;;;;;9.63;2.25;;;15.80;65.60;;;;;;7368109;19;20018;-79
2022/09/19 07:48:56;;;;;;;10.75;2.30;;;15.90;65.50;;;;;;7372243;19;20027;-78
2022/09/19 07:51:29;;;;;;;9.00;2.20;;;16.00;65.30;;;;;;7393906;19;20736;-79
2022/09/19 07:53:59;;;;;;;13.32;2.05;;;16.10;65.10;;;;;;7398119;19;20299;-79
2022/09/19 07:56:27;;;;;;;11.40;2.10;;;16.20;65.30;;;;;;7397661;19;20025;-79
2022/09/19 07:59:00;;;;;;;6.90;1.95;;;16.20;65.20;;;;;;7374352;19;20083;-79
2022/09/19 08:01:28;;;;;;;6.07;1.80;;;16.30;65.10;;;;;;7399740;19;20015;-79
2022/09/19 08:03:57;;;;;;;8.90;2.00;;;16.40;65.00;;;;;;7399672;19;20014;-79
2022/09/19 08:06:26;;;;;;;10.88;1.63;;;16.40;64.90;;;;;;7402619;19;20014;-79
2022/09/19 08:08:55;;;;;;;9.10;1.67;;;16.40;64.80;;;;;;7398807;19;20021;-79
2022/09/19 08:11:23;;;;;;;14.90;1.90;;;16.50;64.80;;;;;;7399549;19;20022;-79
2022/09/19 08:13:52;;;;;;;5.43;2.00;;;16.60;64.40;;;;;;7397926;19;20018;-79
2022/09/19 08:16:23;;;;;;;7.72;1.58;;;16.60;64.50;;;;;;7404247;19;20035;-79
2022/09/19 08:18:52;;;;;;;7.18;1.75;;;16.50;64.20;;;;;;7406894;19;20019;-78
2022/09/19 08:21:21;;;;;;;10.85;2.00;;;16.70;64.40;;;;;;7404646;19;20018;-78
2022/09/19 08:23:50;;;;;;;7.93;1.58;;;16.70;64.20;;;;;;7397331;19;20753;-79
2022/09/19 08:26:19;;;;;;;8.13;1.60;;;16.80;63.80;;;;;;7398104;19;20051;-79
2022/09/19 08:28:51;;;;;;;6.47;1.23;;;16.90;63.40;;;;;;7397253;19;20022;-79
2022/09/19 08:31:22;;;;;;;5.60;1.83;;;16.90;63.20;;;;;;7397473;19;20029;-79
2022/09/19 08:33:51;;;;;;;7.20;1.50;;;17.00;62.90;;;;;;7397054;19;20489;-79
2022/09/19 08:36:20;;;;;;;10.73;1.60;;;16.90;61.90;;;;;;7396737;19;20018;-79
2022/09/19 08:38:49;;;;;;;10.40;1.67;;;16.80;61.10;;;;;;7369870;19;20073;-79
2022/09/19 08:41:40;;;;;;;9.50;1.23;;;16.80;61.50;;;;;;7369652;19;20419;-79
2022/09/19 08:44:12;;;;;;;;;;;16.70;60.70;;;;;;7371512;19;20031;-79
2022/09/19 08:46:52;;;;;;;11.50;1.40;;;16.80;61.40;;;;;;7371638;19;19998;-79
2022/09/19 08:49:27;;;;;;;9.65;1.40;;;16.70;61.40;;;;;;7354685;19;20320;-79
2022/09/19 08:52:02;;;;;;;4.68;1.40;;;16.80;60.80;;;;;;7392140;19;20434;-78
2022/09/19 08:54:34;;;;;;;6.93;1.33;;;16.80;61.00;;;;;;7395660;19;20066;-79
2022/09/19 08:57:03;;;;;;;11.93;1.50;;;16.80;60.20;;;;;;7393605;19;20018;-79
2022/09/19 08:59:37;;;;;;;7.60;1.58;;;16.80;60.60;;;;;;7367561;19;20403;-79
2022/09/19 09:02:26;;;;;;;25.23;2.50;;;17.00;60.40;;;;;;7364689;19;20006;-79
2022/09/19 09:04:55;;;;;;;7.45;1.20;;;17.10;60.00;;;;;;7316327;19;20014;-79
2022/09/19 09:07:37;;;;;;;6.68;1.60;;;17.20;59.30;;;;;;7393295;19;20019;-79
2022/09/19 09:10:24;;;;;;;7.85;1.30;;;17.30;58.80;;;;;;7396508;19;20014;-79
2022/09/19 09:13:04;;;;;;;5.07;1.17;;;17.40;58.70;;;;;;7396334;19;20010;-79
2022/09/19 09:15:48;;;;;;;7.50;1.33;;;17.50;58.20;;;;;;7397117;19;20469;-79
2022/09/19 09:18:37;;;;;;;7.07;1.50;;;17.60;58.50;;;;;;7396195;19;20017;-79
2022/09/19 09:21:17;;;;;;;11.38;1.23;;;17.60;58.40;;;;;;7397877;19;20011;-79
2022/09/19 09:23:54;;;;;;;6.70;1.08;;;17.70;56.80;;;;;;7393898;19;20031;-79
2022/09/19 09:26:25;;;;;;;4.75;0.73;;;17.80;56.10;;;;;;7353236;19;20456;-79
2022/09/19 09:29:02;;;;;;;5.70;0.98;;;17.80;56.10;;;;;;7368674;19;20103;-79
2022/09/19 09:31:34;;;;;;;7.30;0.80;;;17.70;53.80;;;;;;7369454;19;20011;-79
2022/09/19 09:34:10;;;;;;;4.72;1.23;;;17.80;54.30;;;;;;7370655;19;20442;-79
2022/09/19 09:36:42;;;;;;;4.88;0.73;;;17.70;53.30;;;;;;7369722;19;20450;-79
2022/09/19 09:39:16;;;;;;;3.53;0.77;;;17.70;54.20;;;;;;7366189;19;20015;-79
2022/09/19 09:41:50;;;;;;;5.45;0.70;;;17.80;53.50;;;;;;7386879;19;20010;-79
2022/09/19 09:44:47;;;;;;;3.47;0.90;;;17.90;53.20;;;;;;7367871;19;20014;-79
2022/09/19 09:47:29;;;;;;;4.38;0.80;;;17.90;52.90;;;;;;7367495;19;20026;-79
2022/09/19 09:50:14;;;;;;;3.95;0.80;;;18.00;51.30;;;;;;7367837;19;20341;-79
2022/09/19 09:52:50;;;;;;;4.15;1.00;;;18.00;51.50;;;;;;7368795;19;20018;-79
2022/09/19 09:58:24;;;;;;;6.80;1.08;;;17.90;50.60;;;;;;7375714;19;20021;-80
2022/09/19 10:03:49;;;;;;;4.45;1.00;;;17.90;51.50;;;;;;7371460;19;20018;-79
2022/09/19 10:06:26;;;;;;;5.50;1.00;;;17.80;51.40;;;;;;7370227;19;20019;-79
2022/09/19 10:09:03;;;;;;;7.45;1.30;;;17.80;51.60;;;;;;7390910;19;20026;-79
2022/09/19 10:11:42;;;;;;;7.72;0.98;;;17.80;51.20;;;;;;7369162;19;20027;-79
2022/09/19 10:14:19;;;;;;;8.60;0.90;;;17.80;51.50;;;;;;7370236;19;20022;-79
2022/09/19 10:16:52;;;;;;;4.25;0.98;;;17.70;50.40;;;;;;7369720;19;20077;-79
2022/09/19 10:19:30;;;;;;;4.53;0.90;;;17.70;50.90;;;;;;7366381;19;20006;-79
2022/09/19 10:22:02;;;;;;;5.53;1.42;;;17.70;51.30;;;;;;7370063;19;20007;-79
2022/09/19 10:24:52;;;;;;;6.13;1.15;;;17.70;51.40;;;;;;7368724;19;20330;-79
2022/09/19 10:27:28;;;;;;;4.75;1.00;;;17.80;52.10;;;;;;7375394;19;20021;-79
2022/09/19 10:30:00;;;;;;;5.57;1.52;;;17.90;52.30;;;;;;7400377;19;20078;-79
2022/09/19 10:32:34;;;;;;;8.18;1.65;;;17.80;51.70;;;;;;7380004;19;20007;-80
2022/09/19 10:35:10;;;;;;;10.70;1.83;;;17.70;52.00;;;;;;7381860;19;20026;-79
2022/09/19 10:37:41;;;;;;;5.75;1.30;;;17.60;52.50;;;;;;7380163;19;20066;-80
2022/09/19 10:40:18;;;;;;;4.80;1.30;;;17.60;52.90;;;;;;7374383;19;20059;-80
2022/09/19 10:42:48;;;;;;;11.73;1.38;;;17.80;53.00;;;;;;7373166;19;20023;-79
2022/09/19 10:45:25;;;;;;;11.93;1.85;;;17.90;52.60;;;;;;7374774;19;20014;-79
2022/09/19 10:47:56;;;;;;;5.20;1.23;;;17.90;52.40;;;;;;7394432;19;20022;-79
2022/09/19 10:50:25;;;;;;;8.70;1.48;;;17.90;52.40;;;;;;7373899;19;20337;-79
2022/09/19 10:53:04;;;;;;;7.38;1.30;;;18.00;52.50;;;;;;7376354;19;20022;-79
2022/09/19 10:55:38;;;;;;;3.97;1.17;;;18.00;51.90;;;;;;7378258;19;20021;-79
2022/09/19 10:58:13;;;;;;;6.93;1.25;;;18.00;51.20;;;;;;7382237;19;20006;-79
2022/09/19 11:00:52;;;;;;;2.15;0.88;;;18.00;51.00;;;;;;7384667;19;20010;-79
2022/09/19 11:03:25;;;;;;;5.15;0.98;;;18.10;50.90;;;;;;7383826;19;20035;-79
2022/09/19 11:06:13;;;;;;;6.78;1.20;;;18.20;50.90;;;;;;7411650;19;20044;-79
2022/09/19 11:08:46;;;;;;;8.55;1.13;;;18.00;49.80;;;;;;7394226;19;20032;-79
2022/09/19 11:11:36;;;;;;;8.38;1.23;;;18.10;50.00;;;;;;7386749;19;20144;-79
2022/09/19 11:14:20;;;;;;;5.43;1.17;;;18.20;50.00;;;;;;7382155;19;20088;-79
2022/09/19 11:17:29;;;;;;;7.25;1.30;;;18.30;50.50;;;;;;7376274;19;20026;-79
2022/09/19 11:20:21;;;;;;;3.30;1.05;;;18.40;50.80;;;;;;7374549;19;20353;-79
2022/09/19 11:23:13;;;;;;;8.85;1.17;;;18.50;50.60;;;;;;7374395;19;20015;-79
2022/09/19 11:25:58;;;;;;;7.97;1.10;;;18.50;49.10;;;;;;7375435;19;20021;-79
2022/09/19 11:28:38;;;;;;;6.28;1.00;;;18.50;47.70;;;;;;7377364;19;20763;-77
2022/09/19 11:31:16;;;;;;;4.03;1.00;;;18.70;48.00;;;;;;7384191;19;20031;-80
2022/09/19 11:33:56;;;;;;;6.13;1.00;;;18.90;48.40;;;;;;7378444;19;20011;-80
2022/09/19 11:36:34;;;;;;;8.30;1.33;;;19.00;47.80;;;;;;7376822;19;20023;-78
2022/09/19 11:39:09;;;;;;;8.40;1.00;;;19.00;47.40;;;;;;7394898;19;20011;-79
2022/09/19 11:41:55;;;;;;;10.00;1.65;;;19.10;47.80;;;;;;7378141;19;20011;-81
2022/09/19 11:44:40;;;;;;;8.48;1.00;;;19.10;47.40;;;;;;7378544;19;20050;-79
2022/09/19 11:47:31;;;;;;;9.35;1.60;;;18.90;47.50;;;;;;7378044;19;20047;-81
2022/09/19 11:50:31;;;;;;;4.45;0.70;;;18.80;48.00;;;;;;7375404;19;20022;-80
2022/09/19 11:53:21;;;;;;;4.00;1.00;;;18.60;47.40;;;;;;7373805;19;20010;-79
2022/09/19 11:55:56;;;;;;;6.88;1.05;;;18.50;46.00;;;;;;7373158;19;20014;-78
2022/09/19 11:58:38;;;;;;;6.65;1.20;;;18.60;46.60;;;;;;7374259;19;20031;-80
2022/09/19 12:01:23;;;;;;;4.22;0.80;;;18.70;46.80;;;;;;7369425;19;20450;-80
2022/09/19 12:04:06;;;;;;;4.38;0.95;;;18.80;47.10;;;;;;7373150;19;20018;-78
2022/09/19 12:06:52;;;;;;;4.13;0.93;;;19.00;47.10;;;;;;7372910;19;20047;-79
2022/09/19 12:09:28;;;;;;;4.68;0.80;;;19.10;46.80;;;;;;7374397;19;20014;-80
2022/09/19 12:12:00;;;;;;;7.93;1.67;;;19.30;46.40;;;;;;7394175;19;20074;-79
2022/09/19 12:14:39;;;;;;;5.85;1.33;;;19.40;46.40;;;;;;7372049;19;20018;-78
2022/09/19 12:17:15;;;;;;;4.10;0.95;;;19.50;45.20;;;;;;7371503;19;20025;-79
2022/09/19 12:19:49;;;;;;;10.05;0.98;;;19.60;45.30;;;;;;7371968;19;20457;-78
2022/09/19 12:22:21;;;;;;;6.05;1.27;;;19.60;45.20;;;;;;7372286;19;20490;-79
2022/09/19 12:24:52;;;;;;;11.13;1.30;;;19.60;45.10;;;;;;7370598;19;20086;-79
2022/09/19 12:27:29;;;;;;;3.95;0.90;;;19.70;45.40;;;;;;7371343;19;20021;-78
2022/09/19 12:30:06;;;;;;;3.28;0.90;;;19.80;45.00;;;;;;7391139;19;20039;-78
2022/09/19 12:32:41;;;;;;;8.57;1.48;;;19.80;44.90;;;;;;7371340;19;20035;-78
2022/09/19 12:35:21;;;;;;;6.13;1.05;;;20.00;44.70;;;;;;7374104;19;20014;-79
2022/09/19 12:38:02;;;;;;;3.58;0.95;;;20.20;43.80;;;;;;7370758;19;20018;-79
2022/09/19 12:40:42;;;;;;;5.30;1.10;;;20.20;43.30;;;;;;7369712;19;20028;-79
2022/09/19 12:43:20;;;;;;;5.60;1.10;;;20.20;42.30;;;;;;7370064;19;20836;-78
2022/09/19 12:46:09;;;;;;;6.05;1.00;;;20.10;43.30;;;;;;7370175;19;20010;-78
2022/09/19 12:48:47;;;;;;;4.75;1.13;;;20.20;42.70;;;;;;7371682;19;20442;-79
2022/09/19 12:51:24;;;;;;;3.67;1.00;;;20.20;42.80;;;;;;7371767;19;20018;-79
2022/09/19 12:54:03;;;;;;;6.70;1.00;;;20.10;43.60;;;;;;7391612;19;20014;-79
2022/09/19 12:56:36;;;;;;;7.68;2.08;;;20.10;42.50;;;;;;7369144;19;20097;-79
2022/09/19 12:59:14;;;;;;;5.03;0.95;;;20.00;43.50;;;;;;7369659;19;20039;-79
2022/09/19 13:01:48;;;;;;;4.78;1.10;;;20.00;43.50;;;;;;7370610;19;20082;-79
2022/09/19 13:04:31;;;;;;;5.85;0.90;;;20.10;43.00;;;;;;7371709;19;20046;-79
2022/09/19 13:07:07;;;;;;;2.35;0.90;;;20.10;43.50;;;;;;7369530;19;20044;-79
2022/09/19 13:09:40;;;;;;;7.47;0.90;;;20.30;43.90;;;;;;7369159;19;20024;-79
2022/09/19 13:12:15;;;;;;;1.42;0.85;;;20.40;42.20;;;;;;7370026;19;20110;-79
2022/09/19 13:14:49;;;;;;;4.25;0.93;;;20.60;42.40;;;;;;7390951;19;20073;-79
2022/09/19 13:25:43;;;;;;;5.70;1.02;;;20.50;42.60;;;;;;7373977;19;20022;-79
2022/09/19 13:28:46;;;;;;;8.27;1.15;;;20.60;43.00;;;;;;7369173;19;20015;-79
2022/09/19 13:31:17;;;;;;;5.47;1.00;;;20.70;41.70;;;;;;7368162;19;20037;-79
2022/09/19 13:33:52;;;;;;;3.92;1.00;;;20.70;41.80;;;;;;7368690;19;20021;-79
2022/09/19 13:36:43;;;;;;;4.13;1.05;;;20.70;41.70;;;;;;7369072;19;20015;-79
2022/09/19 13:39:41;;;;;;;3.03;1.15;;;20.70;41.50;;;;;;7368690;19;20014;-79
2022/09/19 13:42:14;;;;;;;2.75;0.90;;;20.60;42.20;;;;;;7368866;19;20477;-79
2022/09/19 13:44:49;;;;;;;5.50;1.13;;;20.60;42.30;;;;;;7391203;19;20019;-79
2022/09/19 13:47:26;;;;;;;3.22;0.90;;;20.70;42.30;;;;;;7371655;19;20074;-78
2022/09/19 13:50:06;;;;;;;5.00;1.20;;;20.80;42.40;;;;;;7368734;19;20007;-78
2022/09/19 13:52:41;;;;;;;3.85;1.10;;;20.80;42.10;;;;;;7369300;19;20013;-78
2022/09/19 13:55:20;;;;;;;4.82;0.90;;;20.80;42.10;;;;;;7368147;19;20035;-79
2022/09/19 13:57:49;;;;;;;7.35;1.08;;;20.90;43.00;;;;;;7367485;19;20183;-79
2022/09/19 14:00:37;;;;;;;2.63;0.85;;;20.80;42.10;;;;;;7370689;19;20022;-79
2022/09/19 14:03:19;;;;;;;2.90;1.05;;;20.80;42.50;;;;;;7390100;19;20043;-79
2022/09/19 14:05:50;;;;;;;2.28;1.00;;;20.80;42.90;;;;;;7398310;19;20031;-78
2022/09/19 14:08:33;;;;;;;;;;;20.60;42.60;;;;;;7375125;19;20070;-78
2022/09/19 14:11:03;;;;;;;5.65;1.00;;;20.30;43.00;;;;;;7374587;19;20029;-78
2022/09/19 14:13:40;;;;;;;4.40;0.75;;;20.10;43.50;;;;;;7376077;19;20015;-78
2022/09/19 14:16:20;;;;;;;8.68;2.08;;;20.10;44.00;;;;;;7374080;19;20015;-79
2022/09/19 14:18:54;;;;;;;3.10;0.90;;;20.20;43.70;;;;;;7374590;19;20058;-79
2022/09/19 14:22:00;;;;;;;4.13;0.90;;;19.90;43.70;;;;;;7374459;19;20018;-78
2022/09/19 14:24:52;;;;;;;2.25;1.10;;;20.10;43.90;;;;;;7375514;19;20017;-78
2022/09/19 14:27:45;;;;;;;4.28;1.00;;;20.10;44.00;;;;;;7374895;19;20043;-79
2022/09/19 14:30:37;;;;;;;5.93;1.17;;;20.20;44.20;;;;;;7371699;19;20015;-79
2022/09/19 14:33:56;;;;;;;8.50;1.05;;;20.10;44.10;;;;;;7386181;19;20011;-79
2022/09/19 14:36:40;;;;;;;4.72;1.15;;;20.30;44.80;;;;;;7374628;19;21399;-79
2022/09/19 14:39:43;;;;;;;5.18;1.40;;;20.50;44.00;;;;;;7374838;19;20456;-79
2022/09/19 14:42:30;;;;;;;5.25;1.20;;;20.70;43.30;;;;;;7375408;19;20014;-79
2022/09/19 14:45:20;;;;;;;6.43;1.00;;;20.90;43.20;;;;;;7398990;19;20575;-78
2022/09/19 14:47:53;;;;;;;3.75;1.08;;;21.10;42.50;;;;;;7394332;19;20022;-79
2022/09/19 14:50:25;;;;;;;3.65;1.00;;;21.00;41.60;;;;;;7397681;19;20061;-78
2022/09/19 14:52:59;;;;;;;3.92;1.10;;;20.80;42.40;;;;;;7385967;19;20372;-79
2022/09/19 14:55:38;;;;;;;4.20;1.10;;;20.80;42.50;;;;;;7378982;19;20011;-78
2022/09/19 14:58:07;;;;;;;0.93;0.70;;;21.00;42.10;;;;;;7375712;19;20026;-79
2022/09/19 15:00:37;;;;;;;6.68;1.10;;;21.10;42.20;;;;;;7373430;19;20018;-79
2022/09/19 15:03:13;;;;;;;3.33;0.80;;;21.20;41.50;;;;;;7391448;19;20347;-79
2022/09/19 15:05:43;;;;;;;3.58;1.00;;;21.20;41.80;;;;;;7396638;19;20010;-79
2022/09/19 15:08:26;;;;;;;2.20;0.70;;;21.10;42.20;;;;;;7375617;19;20080;-79
2022/09/19 15:11:03;;;;;;;6.25;1.02;;;20.80;42.10;;;;;;7375948;19;20511;-80
2022/09/19 15:13:33;;;;;;;5.95;1.25;;;20.80;42.70;;;;;;7378843;19;20015;-80
2022/09/19 15:16:05;;;;;;;3.40;1.10;;;20.80;42.50;;;;;;7376936;19;20015;-80
2022/09/19 15:18:40;;;;;;;2.60;1.02;;;20.80;42.80;;;;;;7374669;19;20039;-80
2022/09/19 15:21:11;;;;;;;4.00;1.10;;;20.70;42.50;;;;;;7372840;19;20086;-80
2022/09/19 15:23:43;;;;;;;1.13;0.55;;;20.80;42.90;;;;;;7393032;19;20034;-79
2022/09/19 15:26:25;;;;;;;2.58;0.80;;;20.70;42.60;;;;;;7373395;19;20006;-80
2022/09/19 15:28:59;;;;;;;2.67;0.65;;;20.60;42.90;;;;;;7374995;19;20027;-80
2022/09/19 15:31:38;;;;;;;3.53;0.80;;;20.50;42.70;;;;;;7372163;19;20022;-79
2022/09/19 15:34:36;;;;;;;4.78;0.88;;;20.70;42.70;;;;;;7378416;19;20025;-80
2022/09/19 15:37:21;;;;;;;2.17;0.82;;;20.80;42.70;;;;;;7376966;19;20015;-79
2022/09/19 15:39:51;;;;;;;3.50;0.75;;;20.90;42.50;;;;;;7373481;19;20006;-79
2022/09/19 15:42:22;;;;;;;2.20;0.80;;;20.90;42.40;;;;;;7376621;19;20023;-79
2022/09/19 15:44:54;;;;;;;2.35;0.90;;;21.00;42.50;;;;;;7401298;19;20007;-80
2022/09/19 15:47:33;;;;;;;2.65;0.80;;;20.90;42.70;;;;;;7377800;19;20039;-81
2022/09/19 15:50:06;;;;;;;7.88;1.25;;;20.80;43.10;;;;;;7375560;19;20332;-79
2022/09/19 15:52:40;;;;;;;8.38;0.88;;;20.70;43.10;;;;;;7374721;19;20010;-79
2022/09/19 15:55:38;;;;;;;2.53;0.77;;;20.50;43.50;;;;;;7373174;19;20018;-79
2022/09/19 15:58:24;;;;;;;5.65;1.08;;;20.50;43.80;;;;;;7374575;19;20010;-79
2022/09/19 16:00:57;;;;;;;5.40;0.95;;;20.20;44.20;;;;;;7375323;19;20010;-80
2022/09/19 16:03:35;;;;;;;3.70;1.02;;;19.90;44.80;;;;;;7377812;19;20022;-80
2022/09/19 16:09:04;;;;;;;11.05;1.10;;;19.80;45.50;;;;;;7280654;19;2004646;-80
2022/09/19 16:11:38;;;;;;;2.88;1.10;;;20.00;45.50;;;;;;7403567;19;20018;-80
2022/09/19 16:14:18;;;;;;;4.93;1.20;;;20.00;45.70;;;;;;7380323;19;20083;-80
2022/09/19 16:16:52;;;;;;;2.40;1.10;;;20.00;45.70;;;;;;7376437;19;20779;-80
2022/09/19 16:19:42;;;;;;;2.53;1.00;;;20.00;45.80;;;;;;7378945;19;20078;-80
2022/09/19 16:22:16;;;;;;;5.53;1.40;;;20.00;45.70;;;;;;7379135;19;20040;-80
2022/09/19 16:24:53;;;;;;;3.55;1.30;;;20.00;45.90;;;;;;7379624;19;20015;-80
2022/09/19 16:27:31;;;;;;;3.40;1.10;;;19.80;46.00;;;;;;7374789;19;20018;-80
2022/09/19 16:30:19;;;;;;;7.15;1.20;;;19.70;46.10;;;;;;7396909;19;20010;-79
2022/09/19 16:32:48;;;;;;;3.38;1.00;;;19.60;46.60;;;;;;7373667;19;20052;-79
2022/09/19 16:35:30;;;;;;;2.25;1.13;;;19.60;46.80;;;;;;7372223;19;20327;-79
2022/09/19 16:38:08;;;;;;;4.82;0.95;;;19.70;47.20;;;;;;7373539;19;20018;-80
2022/09/19 16:40:38;;;;;;;3.58;1.30;;;19.80;47.20;;;;;;7374284;19;20445;-80
2022/09/19 16:43:39;;;;;;;3.50;0.93;;;19.90;47.20;;;;;;7374205;19;20017;-79
2022/09/19 16:46:27;;;;;;;3.07;1.03;;;20.30;46.20;;;;;;7374600;19;20400;-80
2022/09/19 16:49:06;;;;;;;2.45;0.90;;;21.10;44.40;;;;;;7374055;19;20039;-80
2022/09/19 16:51:35;;;;;;;1.95;0.88;;;21.90;43.60;;;;;;7374908;19;20446;-79
2022/09/19 16:54:11;;;;;;;4.72;0.95;;;22.50;41.50;;;;;;7393137;19;20039;-80
2022/09/19 16:56:52;;;;;;;2.13;0.80;;;22.50;41.20;;;;;;7372595;19;20025;-79
2022/09/19 16:59:28;;;;;;;4.30;0.90;;;22.40;41.40;;;;;;7379517;19;20868;-79
2022/09/19 17:02:08;;;;;;;2.00;0.70;;;22.30;41.80;;;;;;7372774;19;20125;-80
2022/09/19 17:04:43;;;;;;;2.33;0.67;;;22.40;41.30;;;;;;7377724;19;20007;-80
2022/09/19 17:07:13;;;;;;;2.63;0.63;;;22.60;40.00;;;;;;7379877;19;20043;-77
2022/09/19 17:09:42;;;;;;;2.85;0.60;;;22.60;39.60;;;;;;7377806;19;20007;-80
2022/09/19 17:12:13;;;;;;;3.13;0.95;;;22.40;39.70;;;;;;7374104;19;20422;-80
2022/09/19 17:14:42;;;;;;;3.53;0.88;;;21.90;40.60;;;;;;7394157;19;20025;-79
2022/09/19 17:17:14;;;;;;;1.90;1.00;;;21.50;41.30;;;;;;7372650;19;20014;-78
2022/09/19 17:19:44;;;;;;;0.70;0.45;;;21.10;42.50;;;;;;7375586;19;20415;-78
2022/09/19 17:22:15;;;;;;;2.97;0.70;;;20.70;43.20;;;;;;7372411;19;20070;-79
2022/09/19 17:24:45;;;;;;;4.10;0.90;;;20.50;43.90;;;;;;7373184;19;20042;-79
2022/09/19 17:27:14;;;;;;;2.53;0.70;;;20.20;44.50;;;;;;7369479;19;20014;-80
2022/09/19 17:29:43;;;;;;;0.80;0.60;;;20.00;45.00;;;;;;7390534;19;20011;-79
2022/09/19 17:32:15;;;;;;;1.92;0.60;;;19.90;45.30;;;;;;7370379;19;20015;-80
2022/09/19 17:34:44;;;;;;;1.48;0.80;;;19.70;45.50;;;;;;7376056;19;20018;-80
2022/09/19 17:37:12;;;;;;;5.28;1.30;;;19.70;45.80;;;;;;7378545;19;20019;-79
2022/09/19 17:39:41;;;;;;;6.68;1.20;;;19.70;46.20;;;;;;7380941;19;20052;-80
2022/09/19 17:42:18;;;;;;;3.88;1.30;;;19.60;46.50;;;;;;7375289;19;20015;-78
2022/09/19 17:44:59;;;;;;;2.15;0.65;;;19.50;46.70;;;;;;7394345;19;20074;-79
2022/09/19 17:47:47;;;;;;;1.17;0.55;;;19.20;47.20;;;;;;7379736;19;20075;-80
2022/09/19 17:50:29;;;;;;;1.92;0.60;;;19.10;47.80;;;;;;7375968;19;20021;-79
2022/09/19 17:53:01;;;;;;;2.55;0.85;;;19.10;47.80;;;;;;7375936;19;20082;-80
2022/09/19 17:55:32;;;;;;;1.92;0.80;;;19.00;48.00;;;;;;7374901;19;20014;-79
2022/09/19 17:58:11;;;;;;;2.80;1.00;;;19.00;48.10;;;;;;7374369;19;20058;-79
2022/09/19 18:00:42;;;;;;;2.42;1.00;;;18.90;48.30;;;;;;7372746;19;20015;-80
2022/09/19 18:03:18;;;;;;;4.30;1.20;;;18.90;48.50;;;;;;7376282;19;20083;-80
2022/09/19 18:06:05;;;;;;;2.47;1.00;;;18.90;48.60;;;;;;7397918;19;20453;-79
2022/09/19 18:08:34;;;;;;;5.35;1.50;;;18.90;48.70;;;;;;7375605;19;20015;-79
2022/09/19 18:11:04;;;;;;;3.15;1.23;;;18.90;48.80;;;;;;7375486;19;20021;-79
2022/09/19 18:13:36;;;;;;;4.32;1.30;;;18.80;48.80;;;;;;7375717;19;20010;-79
2022/09/19 18:16:09;;;;;;;1.23;1.00;;;18.80;48.90;;;;;;7376485;19;20011;-79
2022/09/19 18:18:43;;;;;;;1.48;1.02;;;18.80;49.10;;;;;;7377661;19;20430;-80
2022/09/19 18:21:13;;;;;;;8.82;1.38;;;18.60;49.30;;;;;;7374443;19;20019;-79
2022/09/19 18:23:45;;;;;;;3.85;1.17;;;18.60;49.40;;;;;;7397468;19;20024;-80
2022/09/19 18:26:17;;;;;;;3.42;1.30;;;18.60;49.50;;;;;;7376450;19;20581;-79
2022/09/19 18:28:47;;;;;;;3.03;1.30;;;18.50;49.70;;;;;;7375210;19;20130;-79
2022/09/19 18:31:16;;;;;;;5.70;1.35;;;18.50;49.70;;;;;;7377590;19;20019;-79
2022/09/19 18:33:48;;;;;;;3.00;1.38;;;18.50;49.70;;;;;;7402979;19;20035;-80
2022/09/19 18:36:19;;;;;;;2.90;1.10;;;18.40;50.30;;;;;;7389758;19;20014;-79
2022/09/19 18:38:50;;;;;;;;;;;18.40;49.80;;;;;;7402776;19;20023;-78
2022/09/19 18:41:20;;;;;;;7.50;2.40;;;18.40;49.90;;;;;;7377633;19;20303;-80
2022/09/19 18:43:50;;;;;;;7.50;3.50;;;18.30;50.00;;;;;;7375300;19;20478;-79
2022/09/19 18:46:22;;;;;;;4.82;2.80;;;18.40;50.30;;;;;;7373666;19;20022;-80
2022/09/19 18:48:58;;;;;;;9.95;3.25;;;18.40;50.60;;;;;;7375410;19;20480;-79
2022/09/19 18:51:30;;;;;;;10.63;5.38;;;18.30;51.00;;;;;;7374708;19;20014;-79
2022/09/19 18:54:00;;;;;;;8.48;2.40;;;18.30;51.00;;;;;;7394945;19;20014;-79
2022/09/19 18:56:30;;;;;;;2.67;1.20;;;18.40;51.20;;;;;;7376629;19;20422;-78
2022/09/19 18:58:59;;;;;;;5.47;1.40;;;18.40;51.40;;;;;;7376638;19;20010;-80
2022/09/19 19:01:29;;;;;;;4.45;1.30;;;18.30;50.50;;;;;;7375512;19;20017;-80
2022/09/19 19:04:01;;;;;;;4.13;1.23;;;18.30;50.50;;;;;;7379680;19;20021;-80